sensor_id;sensor_type;location;lat;lon;timestamp;P1;durP1;ratioP1;P2;durP2;ratioP2
11537;SDS011;50159;49.426;11.182;2022-11-21T00:03:43;2.27;;;2.23;;
11537;SDS011;50159;49.426;11.182;2022-11-21T00:06:10;2.27;;;2.17;;
11537;SDS011;50159;49.426;11.182;2022-11-21T00:08:41;2.27;;;2.27;;
11537;SDS011;50159;49.426;11.182;2022-11-21T00:11:09;3.03;;;2.30;;
11537;SDS011;50159;49.426;11.182;2022-11-21T00:13:36;2.20;;;2.20;;
11537;SDS011;50159;49.426;11.182;2022-11-21T00:16:07;2.43;;;2.30;;
11537;SDS011;50159;49.426;11.182;2022-11-21T00:18:37;2.30;;;2.20;;
11537;SDS011;50159;49.426;11.182;2022-11-21T00:21:08;2.43;;;2.33;;
11537;SDS011;50159;49.426;11.182;2022-11-21T00:23:39;2.20;;;2.20;;
11537;SDS011;50159;49.426;11.182;2022-11-21T00:26:06;2.10;;;2.10;;
11537;SDS011;50159;49.426;11.182;2022-11-21T00:28:35;2.43;;;2.33;;
11537;SDS011;50159;49.426;11.182;2022-11-21T00:31:02;2.30;;;2.20;;
11537;SDS011;50159;49.426;11.182;2022-11-21T00:33:31;2.53;;;2.43;;
11537;SDS011;50159;49.426;11.182;2022-11-21T00:36:07;2.60;;;2.50;;
11537;SDS011;50159;49.426;11.182;2022-11-21T00:38:35;2.60;;;2.50;;
11537;SDS011;50159;49.426;11.182;2022-11-21T00:41:02;2.73;;;2.63;;
11537;SDS011;50159;49.426;11.182;2022-11-21T00:43:29;2.77;;;2.67;;
11537;SDS011;50159;49.426;11.182;2022-11-21T00:45:56;2.40;;;2.30;;
11537;SDS011;50159;49.426;11.182;2022-11-21T00:48:26;2.60;;;2.50;;
11537;SDS011;50159;49.426;11.182;2022-11-21T00:50:54;2.57;;;2.40;;
11537;SDS011;50159;49.426;11.182;2022-11-21T00:53:20;2.53;;;2.43;;
11537;SDS011;50159;49.426;11.182;2022-11-21T00:55:47;2.70;;;2.50;;
11537;SDS011;50159;49.426;11.182;2022-11-21T00:58:14;2.20;;;2.10;;
11537;SDS011;50159;49.426;11.182;2022-11-21T01:00:41;2.60;;;2.40;;
11537;SDS011;50159;49.426;11.182;2022-11-21T01:03:07;3.30;;;2.70;;
11537;SDS011;50159;49.426;11.182;2022-11-21T01:05:34;3.10;;;2.80;;
11537;SDS011;50159;49.426;11.182;2022-11-21T01:08:01;2.93;;;2.80;;
11537;SDS011;50159;49.426;11.182;2022-11-21T01:10:28;2.73;;;2.40;;
11537;SDS011;50159;49.426;11.182;2022-11-21T01:12:55;2.70;;;2.27;;
11537;SDS011;50159;49.426;11.182;2022-11-21T01:15:21;3.60;;;2.70;;
11537;SDS011;50159;49.426;11.182;2022-11-21T01:17:48;3.57;;;2.53;;
11537;SDS011;50159;49.426;11.182;2022-11-21T01:20:15;5.70;;;3.23;;
11537;SDS011;50159;49.426;11.182;2022-11-21T01:22:42;3.23;;;2.80;;
11537;SDS011;50159;49.426;11.182;2022-11-21T01:25:09;2.60;;;2.40;;
11537;SDS011;50159;49.426;11.182;2022-11-21T01:27:35;2.50;;;2.40;;
11537;SDS011;50159;49.426;11.182;2022-11-21T01:30:02;2.33;;;2.23;;
11537;SDS011;50159;49.426;11.182;2022-11-21T01:32:29;4.13;;;2.40;;
11537;SDS011;50159;49.426;11.182;2022-11-21T01:34:56;2.70;;;2.50;;
11537;SDS011;50159;49.426;11.182;2022-11-21T01:37:23;3.07;;;2.73;;
11537;SDS011;50159;49.426;11.182;2022-11-21T01:39:50;2.30;;;2.20;;
11537;SDS011;50159;49.426;11.182;2022-11-21T01:42:17;2.67;;;2.50;;
11537;SDS011;50159;49.426;11.182;2022-11-21T01:44:48;3.23;;;2.90;;
11537;SDS011;50159;49.426;11.182;2022-11-21T01:47:18;3.63;;;2.13;;
11537;SDS011;50159;49.426;11.182;2022-11-21T01:49:47;5.03;;;2.10;;
11537;SDS011;50159;49.426;11.182;2022-11-21T01:54:54;4.90;;;2.13;;
11537;SDS011;50159;49.426;11.182;2022-11-21T01:57:34;5.37;;;2.30;;
11537;SDS011;50159;49.426;11.182;2022-11-21T02:00:11;3.03;;;2.90;;
11537;SDS011;50159;49.426;11.182;2022-11-21T02:02:50;4.67;;;2.43;;
11537;SDS011;50159;49.426;11.182;2022-11-21T02:05:25;1.97;;;1.90;;
11537;SDS011;50159;49.426;11.182;2022-11-21T02:08:01;3.00;;;2.47;;
11537;SDS011;50159;49.426;11.182;2022-11-21T02:10:34;2.20;;;2.10;;
11537;SDS011;50159;49.426;11.182;2022-11-21T02:13:04;3.80;;;2.27;;
11537;SDS011;50159;49.426;11.182;2022-11-21T02:15:31;3.03;;;2.63;;
11537;SDS011;50159;49.426;11.182;2022-11-21T02:17:58;5.57;;;2.23;;
11537;SDS011;50159;49.426;11.182;2022-11-21T02:20:25;3.33;;;1.90;;
11537;SDS011;50159;49.426;11.182;2022-11-21T02:25:41;3.53;;;2.10;;
11537;SDS011;50159;49.426;11.182;2022-11-21T02:28:10;1.90;;;1.90;;
11537;SDS011;50159;49.426;11.182;2022-11-21T02:30:41;2.83;;;2.47;;
11537;SDS011;50159;49.426;11.182;2022-11-21T02:33:09;4.23;;;2.17;;
11537;SDS011;50159;49.426;11.182;2022-11-21T02:35:38;2.50;;;2.30;;
11537;SDS011;50159;49.426;11.182;2022-11-21T02:38:26;3.30;;;2.50;;
11537;SDS011;50159;49.426;11.182;2022-11-21T02:43:41;3.83;;;1.97;;
11537;SDS011;50159;49.426;11.182;2022-11-21T02:46:19;4.33;;;2.10;;
11537;SDS011;50159;49.426;11.182;2022-11-21T02:48:46;6.30;;;2.73;;
11537;SDS011;50159;49.426;11.182;2022-11-21T02:51:13;2.10;;;2.00;;
11537;SDS011;50159;49.426;11.182;2022-11-21T02:53:39;2.83;;;2.20;;
11537;SDS011;50159;49.426;11.182;2022-11-21T02:56:06;1.93;;;1.87;;
11537;SDS011;50159;49.426;11.182;2022-11-21T02:58:33;2.17;;;2.03;;
11537;SDS011;50159;49.426;11.182;2022-11-21T03:01:00;1.80;;;1.73;;
11537;SDS011;50159;49.426;11.182;2022-11-21T03:03:27;2.60;;;1.80;;
11537;SDS011;50159;49.426;11.182;2022-11-21T03:05:54;4.40;;;2.10;;
11537;SDS011;50159;49.426;11.182;2022-11-21T03:08:21;4.53;;;2.03;;
11537;SDS011;50159;49.426;11.182;2022-11-21T03:10:48;2.03;;;1.73;;
11537;SDS011;50159;49.426;11.182;2022-11-21T03:13:15;3.57;;;2.03;;
11537;SDS011;50159;49.426;11.182;2022-11-21T03:15:41;2.27;;;1.90;;
11537;SDS011;50159;49.426;11.182;2022-11-21T03:18:08;3.37;;;2.03;;
11537;SDS011;50159;49.426;11.182;2022-11-21T03:20:35;2.53;;;1.87;;
11537;SDS011;50159;49.426;11.182;2022-11-21T03:23:02;1.70;;;1.70;;
11537;SDS011;50159;49.426;11.182;2022-11-21T03:25:29;1.73;;;1.70;;
11537;SDS011;50159;49.426;11.182;2022-11-21T03:27:56;3.27;;;2.10;;
11537;SDS011;50159;49.426;11.182;2022-11-21T03:30:23;1.70;;;1.70;;
11537;SDS011;50159;49.426;11.182;2022-11-21T03:32:56;2.30;;;1.90;;
11537;SDS011;50159;49.426;11.182;2022-11-21T03:35:23;2.87;;;2.13;;
11537;SDS011;50159;49.426;11.182;2022-11-21T03:37:51;1.80;;;1.70;;
11537;SDS011;50159;49.426;11.182;2022-11-21T03:40:18;2.00;;;2.00;;
11537;SDS011;50159;49.426;11.182;2022-11-21T03:42:45;3.40;;;1.90;;
11537;SDS011;50159;49.426;11.182;2022-11-21T03:45:12;2.60;;;2.00;;
11537;SDS011;50159;49.426;11.182;2022-11-21T03:47:39;2.17;;;1.80;;
11537;SDS011;50159;49.426;11.182;2022-11-21T03:50:06;2.17;;;1.93;;
11537;SDS011;50159;49.426;11.182;2022-11-21T03:52:33;3.00;;;2.70;;
11537;SDS011;50159;49.426;11.182;2022-11-21T03:55:00;2.20;;;2.10;;
11537;SDS011;50159;49.426;11.182;2022-11-21T03:57:27;2.13;;;1.93;;
11537;SDS011;50159;49.426;11.182;2022-11-21T03:59:53;2.00;;;1.90;;
11537;SDS011;50159;49.426;11.182;2022-11-21T04:02:20;1.90;;;1.80;;
11537;SDS011;50159;49.426;11.182;2022-11-21T04:04:47;3.47;;;2.27;;
11537;SDS011;50159;49.426;11.182;2022-11-21T04:07:13;3.40;;;2.00;;
11537;SDS011;50159;49.426;11.182;2022-11-21T04:09:41;2.27;;;2.07;;
11537;SDS011;50159;49.426;11.182;2022-11-21T04:12:08;4.30;;;2.10;;
11537;SDS011;50159;49.426;11.182;2022-11-21T04:14:34;2.73;;;2.00;;
11537;SDS011;50159;49.426;11.182;2022-11-21T04:17:01;4.53;;;2.30;;
11537;SDS011;50159;49.426;11.182;2022-11-21T04:19:28;1.80;;;1.70;;
11537;SDS011;50159;49.426;11.182;2022-11-21T04:21:55;4.27;;;2.53;;
11537;SDS011;50159;49.426;11.182;2022-11-21T04:24:22;3.83;;;2.30;;
11537;SDS011;50159;49.426;11.182;2022-11-21T04:26:48;2.20;;;2.10;;
11537;SDS011;50159;49.426;11.182;2022-11-21T04:29:15;4.77;;;2.10;;
11537;SDS011;50159;49.426;11.182;2022-11-21T04:31:42;4.20;;;2.03;;
11537;SDS011;50159;49.426;11.182;2022-11-21T04:34:08;2.20;;;2.03;;
11537;SDS011;50159;49.426;11.182;2022-11-21T04:36:35;4.40;;;2.33;;
11537;SDS011;50159;49.426;11.182;2022-11-21T04:39:02;4.93;;;2.07;;
11537;SDS011;50159;49.426;11.182;2022-11-21T04:41:29;3.23;;;2.03;;
11537;SDS011;50159;49.426;11.182;2022-11-21T04:43:56;5.97;;;2.20;;
11537;SDS011;50159;49.426;11.182;2022-11-21T04:46:23;3.67;;;2.27;;
11537;SDS011;50159;49.426;11.182;2022-11-21T04:48:49;3.50;;;2.00;;
11537;SDS011;50159;49.426;11.182;2022-11-21T04:51:16;2.40;;;1.80;;
11537;SDS011;50159;49.426;11.182;2022-11-21T04:53:43;3.17;;;1.93;;
11537;SDS011;50159;49.426;11.182;2022-11-21T04:56:10;1.80;;;1.70;;
11537;SDS011;50159;49.426;11.182;2022-11-21T04:58:39;1.90;;;1.80;;
11537;SDS011;50159;49.426;11.182;2022-11-21T05:01:07;5.03;;;2.53;;
11537;SDS011;50159;49.426;11.182;2022-11-21T05:03:34;1.90;;;1.80;;
11537;SDS011;50159;49.426;11.182;2022-11-21T05:06:01;4.87;;;2.27;;
11537;SDS011;50159;49.426;11.182;2022-11-21T05:08:28;2.10;;;2.00;;
11537;SDS011;50159;49.426;11.182;2022-11-21T05:10:55;2.23;;;2.13;;
11537;SDS011;50159;49.426;11.182;2022-11-21T05:13:40;3.93;;;2.13;;
11537;SDS011;50159;49.426;11.182;2022-11-21T05:16:07;2.87;;;2.00;;
11537;SDS011;50159;49.426;11.182;2022-11-21T05:18:34;2.07;;;1.90;;
11537;SDS011;50159;49.426;11.182;2022-11-21T05:21:01;2.17;;;1.97;;
11537;SDS011;50159;49.426;11.182;2022-11-21T05:23:28;3.17;;;2.30;;
11537;SDS011;50159;49.426;11.182;2022-11-21T05:25:55;3.10;;;2.13;;
11537;SDS011;50159;49.426;11.182;2022-11-21T05:28:22;1.90;;;1.80;;
11537;SDS011;50159;49.426;11.182;2022-11-21T05:30:49;1.73;;;1.67;;
11537;SDS011;50159;49.426;11.182;2022-11-21T05:33:15;4.57;;;1.90;;
11537;SDS011;50159;49.426;11.182;2022-11-21T05:35:43;7.53;;;1.90;;
11537;SDS011;50159;49.426;11.182;2022-11-21T05:38:10;2.80;;;1.97;;
11537;SDS011;50159;49.426;11.182;2022-11-21T05:40:37;1.70;;;1.60;;
11537;SDS011;50159;49.426;11.182;2022-11-21T05:43:04;3.77;;;1.77;;
11537;SDS011;50159;49.426;11.182;2022-11-21T05:45:50;3.37;;;1.90;;
11537;SDS011;50159;49.426;11.182;2022-11-21T05:48:17;2.30;;;1.90;;
11537;SDS011;50159;49.426;11.182;2022-11-21T05:50:45;1.50;;;1.50;;
11537;SDS011;50159;49.426;11.182;2022-11-21T05:53:14;1.70;;;1.70;;
11537;SDS011;50159;49.426;11.182;2022-11-21T05:55:41;1.50;;;1.50;;
11537;SDS011;50159;49.426;11.182;2022-11-21T05:58:09;1.73;;;1.73;;
11537;SDS011;50159;49.426;11.182;2022-11-21T06:00:39;1.57;;;1.57;;
11537;SDS011;50159;49.426;11.182;2022-11-21T06:03:07;1.50;;;1.50;;
11537;SDS011;50159;49.426;11.182;2022-11-21T06:06:00;1.87;;;1.80;;
11537;SDS011;50159;49.426;11.182;2022-11-21T06:08:39;1.70;;;1.70;;
11537;SDS011;50159;49.426;11.182;2022-11-21T06:11:10;2.37;;;1.80;;
11537;SDS011;50159;49.426;11.182;2022-11-21T06:13:39;2.00;;;1.90;;
11537;SDS011;50159;49.426;11.182;2022-11-21T06:16:08;1.70;;;1.70;;
11537;SDS011;50159;49.426;11.182;2022-11-21T06:18:39;2.07;;;1.80;;
11537;SDS011;50159;49.426;11.182;2022-11-21T06:21:11;1.47;;;1.47;;
11537;SDS011;50159;49.426;11.182;2022-11-21T06:23:51;1.80;;;1.60;;
11537;SDS011;50159;49.426;11.182;2022-11-21T06:26:22;1.60;;;1.50;;
11537;SDS011;50159;49.426;11.182;2022-11-21T06:28:51;1.50;;;1.50;;
11537;SDS011;50159;49.426;11.182;2022-11-21T06:31:23;1.60;;;1.60;;
11537;SDS011;50159;49.426;11.182;2022-11-21T06:33:53;1.60;;;1.50;;
11537;SDS011;50159;49.426;11.182;2022-11-21T06:36:22;1.58;;;1.58;;
11537;SDS011;50159;49.426;11.182;2022-11-21T06:38:51;1.70;;;1.70;;
11537;SDS011;50159;49.426;11.182;2022-11-21T06:41:20;1.60;;;1.60;;
11537;SDS011;50159;49.426;11.182;2022-11-21T06:43:50;2.37;;;2.30;;
11537;SDS011;50159;49.426;11.182;2022-11-21T06:46:17;1.93;;;1.70;;
11537;SDS011;50159;49.426;11.182;2022-11-21T06:48:44;1.50;;;1.50;;
11537;SDS011;50159;49.426;11.182;2022-11-21T06:51:18;1.70;;;1.70;;
11537;SDS011;50159;49.426;11.182;2022-11-21T06:53:51;1.57;;;1.57;;
11537;SDS011;50159;49.426;11.182;2022-11-21T06:56:23;1.90;;;1.90;;
11537;SDS011;50159;49.426;11.182;2022-11-21T06:58:53;2.17;;;2.07;;
11537;SDS011;50159;49.426;11.182;2022-11-21T07:01:20;1.77;;;1.70;;
11537;SDS011;50159;49.426;11.182;2022-11-21T07:03:47;1.73;;;1.63;;
11537;SDS011;50159;49.426;11.182;2022-11-21T07:06:14;3.35;;;1.67;;
11537;SDS011;50159;49.426;11.182;2022-11-21T07:08:41;2.33;;;1.70;;
11537;SDS011;50159;49.426;11.182;2022-11-21T07:11:08;1.60;;;1.60;;
11537;SDS011;50159;49.426;11.182;2022-11-21T07:13:53;1.58;;;1.50;;
11537;SDS011;50159;49.426;11.182;2022-11-21T07:16:20;1.92;;;1.83;;
11537;SDS011;50159;49.426;11.182;2022-11-21T07:18:47;2.43;;;1.93;;
11537;SDS011;50159;49.426;11.182;2022-11-21T07:21:13;1.97;;;1.80;;
11537;SDS011;50159;49.426;11.182;2022-11-21T07:23:40;1.67;;;1.57;;
11537;SDS011;50159;49.426;11.182;2022-11-21T07:26:08;2.00;;;1.90;;
11537;SDS011;50159;49.426;11.182;2022-11-21T07:28:36;1.70;;;1.70;;
11537;SDS011;50159;49.426;11.182;2022-11-21T07:31:03;1.83;;;1.70;;
11537;SDS011;50159;49.426;11.182;2022-11-21T07:33:38;1.67;;;1.67;;
11537;SDS011;50159;49.426;11.182;2022-11-21T07:36:05;2.30;;;1.70;;
11537;SDS011;50159;49.426;11.182;2022-11-21T07:38:32;1.87;;;1.87;;
11537;SDS011;50159;49.426;11.182;2022-11-21T07:40:59;1.90;;;1.80;;
11537;SDS011;50159;49.426;11.182;2022-11-21T07:43:25;2.00;;;1.90;;
11537;SDS011;50159;49.426;11.182;2022-11-21T07:45:52;1.70;;;1.70;;
11537;SDS011;50159;49.426;11.182;2022-11-21T07:48:19;1.70;;;1.70;;
11537;SDS011;50159;49.426;11.182;2022-11-21T07:50:46;2.00;;;1.90;;
11537;SDS011;50159;49.426;11.182;2022-11-21T07:53:13;1.80;;;1.80;;
11537;SDS011;50159;49.426;11.182;2022-11-21T07:55:39;2.10;;;2.00;;
11537;SDS011;50159;49.426;11.182;2022-11-21T07:58:07;2.00;;;2.00;;
11537;SDS011;50159;49.426;11.182;2022-11-21T08:00:37;2.07;;;1.80;;
11537;SDS011;50159;49.426;11.182;2022-11-21T08:03:07;2.00;;;2.00;;
11537;SDS011;50159;49.426;11.182;2022-11-21T08:05:37;1.80;;;1.80;;
11537;SDS011;50159;49.426;11.182;2022-11-21T08:08:09;2.00;;;1.97;;
11537;SDS011;50159;49.426;11.182;2022-11-21T08:10:38;2.30;;;2.20;;
11537;SDS011;50159;49.426;11.182;2022-11-21T08:13:07;3.33;;;2.40;;
11537;SDS011;50159;49.426;11.182;2022-11-21T08:15:35;1.90;;;1.77;;
11537;SDS011;50159;49.426;11.182;2022-11-21T08:18:09;1.90;;;1.90;;
11537;SDS011;50159;49.426;11.182;2022-11-21T08:20:38;2.83;;;1.87;;
11537;SDS011;50159;49.426;11.182;2022-11-21T08:23:06;2.10;;;2.00;;
11537;SDS011;50159;49.426;11.182;2022-11-21T08:25:33;1.90;;;1.90;;
11537;SDS011;50159;49.426;11.182;2022-11-21T08:28:04;2.77;;;2.57;;
11537;SDS011;50159;49.426;11.182;2022-11-21T08:30:32;5.23;;;2.80;;
11537;SDS011;50159;49.426;11.182;2022-11-21T08:33:00;2.60;;;2.40;;
11537;SDS011;50159;49.426;11.182;2022-11-21T08:35:28;3.87;;;2.63;;
11537;SDS011;50159;49.426;11.182;2022-11-21T08:37:56;2.50;;;2.30;;
11537;SDS011;50159;49.426;11.182;2022-11-21T08:40:24;2.47;;;2.37;;
11537;SDS011;50159;49.426;11.182;2022-11-21T08:42:57;3.97;;;3.50;;
11537;SDS011;50159;49.426;11.182;2022-11-21T08:45:26;5.07;;;3.87;;
11537;SDS011;50159;49.426;11.182;2022-11-21T08:47:53;6.30;;;3.97;;
11537;SDS011;50159;49.426;11.182;2022-11-21T08:50:20;4.17;;;3.87;;
11537;SDS011;50159;49.426;11.182;2022-11-21T08:52:49;3.30;;;3.10;;
11537;SDS011;50159;49.426;11.182;2022-11-21T08:55:16;3.20;;;3.00;;
11537;SDS011;50159;49.426;11.182;2022-11-21T08:57:43;2.78;;;2.60;;
11537;SDS011;50159;49.426;11.182;2022-11-21T09:00:10;4.65;;;4.28;;
11537;SDS011;50159;49.426;11.182;2022-11-21T09:02:39;3.70;;;3.40;;
11537;SDS011;50159;49.426;11.182;2022-11-21T09:05:06;4.60;;;4.20;;
11537;SDS011;50159;49.426;11.182;2022-11-21T09:07:34;6.30;;;5.60;;
11537;SDS011;50159;49.426;11.182;2022-11-21T09:10:02;9.33;;;7.07;;
11537;SDS011;50159;49.426;11.182;2022-11-21T09:12:29;32.07;;;19.97;;
11537;SDS011;50159;49.426;11.182;2022-11-21T09:14:56;12.38;;;10.43;;
11537;SDS011;50159;49.426;11.182;2022-11-21T09:17:41;6.43;;;5.27;;
11537;SDS011;50159;49.426;11.182;2022-11-21T09:20:27;12.57;;;7.93;;
11537;SDS011;50159;49.426;11.182;2022-11-21T09:22:54;4.90;;;4.50;;
11537;SDS011;50159;49.426;11.182;2022-11-21T09:25:21;4.22;;;3.70;;
11537;SDS011;50159;49.426;11.182;2022-11-21T09:27:48;4.90;;;4.37;;
11537;SDS011;50159;49.426;11.182;2022-11-21T09:30:15;3.70;;;3.40;;
11537;SDS011;50159;49.426;11.182;2022-11-21T09:32:41;18.23;;;12.20;;
11537;SDS011;50159;49.426;11.182;2022-11-21T09:35:08;5.00;;;4.53;;
11537;SDS011;50159;49.426;11.182;2022-11-21T09:37:38;8.43;;;5.43;;
11537;SDS011;50159;49.426;11.182;2022-11-21T09:40:05;12.10;;;7.80;;
11537;SDS011;50159;49.426;11.182;2022-11-21T09:42:41;3.80;;;3.40;;
11537;SDS011;50159;49.426;11.182;2022-11-21T09:45:49;11.23;;;9.03;;
11537;SDS011;50159;49.426;11.182;2022-11-21T09:48:26;13.27;;;10.10;;
11537;SDS011;50159;49.426;11.182;2022-11-21T09:51:04;6.57;;;5.90;;
11537;SDS011;50159;49.426;11.182;2022-11-21T09:53:49;7.43;;;3.23;;
11537;SDS011;50159;49.426;11.182;2022-11-21T09:56:25;8.80;;;5.03;;
11537;SDS011;50159;49.426;11.182;2022-11-21T10:01:37;3.27;;;3.07;;
11537;SDS011;50159;49.426;11.182;2022-11-21T10:04:04;8.30;;;6.27;;
11537;SDS011;50159;49.426;11.182;2022-11-21T10:06:34;8.33;;;5.77;;
11537;SDS011;50159;49.426;11.182;2022-11-21T10:10:02;5.03;;;4.03;;
11537;SDS011;50159;49.426;11.182;2022-11-21T10:15:49;4.57;;;4.10;;
11537;SDS011;50159;49.426;11.182;2022-11-21T10:22:04;4.83;;;2.30;;
11537;SDS011;50159;49.426;11.182;2022-11-21T10:25:18;3.13;;;2.83;;
11537;SDS011;50159;49.426;11.182;2022-11-21T10:28:26;5.70;;;3.07;;
11537;SDS011;50159;49.426;11.182;2022-11-21T10:30:54;2.60;;;2.40;;
11537;SDS011;50159;49.426;11.182;2022-11-21T10:33:31;2.72;;;2.40;;
11537;SDS011;50159;49.426;11.182;2022-11-21T10:38:50;3.13;;;2.83;;
11537;SDS011;50159;49.426;11.182;2022-11-21T10:44:16;5.37;;;2.60;;
11537;SDS011;50159;49.426;11.182;2022-11-21T10:47:30;8.98;;;5.38;;
11537;SDS011;50159;49.426;11.182;2022-11-21T10:50:15;8.47;;;4.87;;
11537;SDS011;50159;49.426;11.182;2022-11-21T10:53:27;10.83;;;5.83;;
11537;SDS011;50159;49.426;11.182;2022-11-21T10:56:15;7.40;;;4.95;;
11537;SDS011;50159;49.426;11.182;2022-11-21T11:06:53;2.63;;;2.43;;
11537;SDS011;50159;49.426;11.182;2022-11-21T11:11:57;2.35;;;2.15;;
11537;SDS011;50159;49.426;11.182;2022-11-21T11:15:22;5.37;;;2.17;;
11537;SDS011;50159;49.426;11.182;2022-11-21T11:17:54;3.43;;;2.50;;
11537;SDS011;50159;49.426;11.182;2022-11-21T11:20:41;5.10;;;3.00;;
11537;SDS011;50159;49.426;11.182;2022-11-21T11:23:16;7.67;;;2.57;;
11537;SDS011;50159;49.426;11.182;2022-11-21T11:25:55;3.63;;;2.60;;
11537;SDS011;50159;49.426;11.182;2022-11-21T11:28:25;3.87;;;2.90;;
11537;SDS011;50159;49.426;11.182;2022-11-21T11:31:00;8.60;;;4.07;;
11537;SDS011;50159;49.426;11.182;2022-11-21T11:39:24;8.53;;;2.90;;
11537;SDS011;50159;49.426;11.182;2022-11-21T11:42:11;6.70;;;3.20;;
11537;SDS011;50159;49.426;11.182;2022-11-21T11:45:29;5.00;;;3.70;;
11537;SDS011;50159;49.426;11.182;2022-11-21T11:48:36;5.00;;;3.30;;
11537;SDS011;50159;49.426;11.182;2022-11-21T11:51:27;5.60;;;3.47;;
11537;SDS011;50159;49.426;11.182;2022-11-21T11:54:07;3.00;;;2.43;;
11537;SDS011;50159;49.426;11.182;2022-11-21T11:56:47;2.57;;;2.33;;
11537;SDS011;50159;49.426;11.182;2022-11-21T11:59:16;2.65;;;2.30;;
11537;SDS011;50159;49.426;11.182;2022-11-21T12:02:05;3.83;;;2.70;;
11537;SDS011;50159;49.426;11.182;2022-11-21T12:04:51;2.77;;;2.50;;
11537;SDS011;50159;49.426;11.182;2022-11-21T12:07:30;2.10;;;2.00;;
11537;SDS011;50159;49.426;11.182;2022-11-21T12:10:44;2.33;;;2.13;;
11537;SDS011;50159;49.426;11.182;2022-11-21T12:13:38;7.03;;;2.50;;
11537;SDS011;50159;49.426;11.182;2022-11-21T12:16:08;2.33;;;2.23;;
11537;SDS011;50159;49.426;11.182;2022-11-21T12:18:55;3.97;;;2.50;;
11537;SDS011;50159;49.426;11.182;2022-11-21T12:21:32;5.33;;;2.83;;
11537;SDS011;50159;49.426;11.182;2022-11-21T12:24:01;2.87;;;2.53;;
11537;SDS011;50159;49.426;11.182;2022-11-21T12:29:04;2.40;;;2.20;;
11537;SDS011;50159;49.426;11.182;2022-11-21T12:35:21;4.20;;;1.70;;
11537;SDS011;50159;49.426;11.182;2022-11-21T12:38:05;2.67;;;2.47;;
11537;SDS011;50159;49.426;11.182;2022-11-21T12:57:32;3.60;;;2.27;;
11537;SDS011;50159;49.426;11.182;2022-11-21T13:03:12;3.60;;;3.03;;
11537;SDS011;50159;49.426;11.182;2022-11-21T13:06:26;4.37;;;2.43;;
11537;SDS011;50159;49.426;11.182;2022-11-21T13:08:59;7.40;;;3.10;;
11537;SDS011;50159;49.426;11.182;2022-11-21T13:11:42;5.53;;;3.03;;
11537;SDS011;50159;49.426;11.182;2022-11-21T13:14:29;3.93;;;2.83;;
11537;SDS011;50159;49.426;11.182;2022-11-21T13:17:17;4.77;;;2.60;;
11537;SDS011;50159;49.426;11.182;2022-11-21T13:19:54;4.90;;;2.87;;
11537;SDS011;50159;49.426;11.182;2022-11-21T13:27:39;4.27;;;3.87;;
11537;SDS011;50159;49.426;11.182;2022-11-21T13:32:35;14.53;;;9.83;;
11537;SDS011;50159;49.426;11.182;2022-11-21T13:40:37;3.70;;;2.40;;
11537;SDS011;50159;49.426;11.182;2022-11-21T13:43:25;5.63;;;2.30;;
11537;SDS011;50159;49.426;11.182;2022-11-21T13:46:01;4.13;;;2.93;;
11537;SDS011;50159;49.426;11.182;2022-11-21T14:08:29;1.70;;;1.60;;
11537;SDS011;50159;49.426;11.182;2022-11-21T14:10:57;2.57;;;2.33;;
11537;SDS011;50159;49.426;11.182;2022-11-21T14:13:30;1.73;;;1.63;;
11537;SDS011;50159;49.426;11.182;2022-11-21T14:19:16;3.73;;;1.60;;
11537;SDS011;50159;49.426;11.182;2022-11-21T14:21:45;1.60;;;1.50;;
11537;SDS011;50159;49.426;11.182;2022-11-21T14:24:15;3.50;;;3.30;;
11537;SDS011;50159;49.426;11.182;2022-11-21T14:26:45;4.17;;;3.93;;
11537;SDS011;50159;49.426;11.182;2022-11-21T14:32:12;3.03;;;2.80;;
11537;SDS011;50159;49.426;11.182;2022-11-21T14:34:40;2.67;;;2.30;;
11537;SDS011;50159;49.426;11.182;2022-11-21T14:37:07;2.60;;;2.30;;
11537;SDS011;50159;49.426;11.182;2022-11-21T14:39:38;2.00;;;1.90;;
11537;SDS011;50159;49.426;11.182;2022-11-21T14:42:11;2.40;;;2.20;;
11537;SDS011;50159;49.426;11.182;2022-11-21T14:44:41;2.00;;;1.80;;
11537;SDS011;50159;49.426;11.182;2022-11-21T14:47:15;2.00;;;1.90;;
11537;SDS011;50159;49.426;11.182;2022-11-21T14:49:52;1.73;;;1.60;;
11537;SDS011;50159;49.426;11.182;2022-11-21T14:52:29;2.30;;;1.70;;
11537;SDS011;50159;49.426;11.182;2022-11-21T14:54:59;1.53;;;1.53;;
11537;SDS011;50159;49.426;11.182;2022-11-21T14:57:49;1.60;;;1.50;;
11537;SDS011;50159;49.426;11.182;2022-11-21T15:00:24;1.97;;;1.60;;
11537;SDS011;50159;49.426;11.182;2022-11-21T15:03:18;2.30;;;2.20;;
11537;SDS011;50159;49.426;11.182;2022-11-21T15:05:48;3.00;;;2.10;;
11537;SDS011;50159;49.426;11.182;2022-11-21T15:08:33;2.20;;;2.10;;
11537;SDS011;50159;49.426;11.182;2022-11-21T15:11:23;2.57;;;2.37;;
11537;SDS011;50159;49.426;11.182;2022-11-21T15:14:46;2.60;;;2.50;;
11537;SDS011;50159;49.426;11.182;2022-11-21T15:17:03;3.33;;;2.27;;
11537;SDS011;50159;49.426;11.182;2022-11-21T15:19:36;2.57;;;2.37;;
11537;SDS011;50159;49.426;11.182;2022-11-21T15:22:03;2.87;;;2.33;;
11537;SDS011;50159;49.426;11.182;2022-11-21T15:24:38;2.40;;;2.07;;
11537;SDS011;50159;49.426;11.182;2022-11-21T15:30:01;4.03;;;2.83;;
11537;SDS011;50159;49.426;11.182;2022-11-21T15:35:43;3.83;;;2.23;;
11537;SDS011;50159;49.426;11.182;2022-11-21T15:43:51;2.80;;;2.60;;
11537;SDS011;50159;49.426;11.182;2022-11-21T15:46:31;2.73;;;2.53;;
11537;SDS011;50159;49.426;11.182;2022-11-21T15:49:10;4.13;;;3.77;;
11537;SDS011;50159;49.426;11.182;2022-11-21T15:52:00;6.27;;;4.77;;
11537;SDS011;50159;49.426;11.182;2022-11-21T15:54:35;6.77;;;5.23;;
11537;SDS011;50159;49.426;11.182;2022-11-21T15:57:02;6.53;;;5.57;;
11537;SDS011;50159;49.426;11.182;2022-11-21T15:59:28;6.20;;;5.60;;
11537;SDS011;50159;49.426;11.182;2022-11-21T16:01:56;5.97;;;5.37;;
11537;SDS011;50159;49.426;11.182;2022-11-21T16:04:23;6.20;;;5.70;;
11537;SDS011;50159;49.426;11.182;2022-11-21T16:06:51;5.83;;;5.23;;
11537;SDS011;50159;49.426;11.182;2022-11-21T16:09:19;6.20;;;5.60;;
11537;SDS011;50159;49.426;11.182;2022-11-21T16:11:46;9.07;;;6.30;;
11537;SDS011;50159;49.426;11.182;2022-11-21T16:14:14;7.63;;;6.00;;
11537;SDS011;50159;49.426;11.182;2022-11-21T16:16:43;8.77;;;7.13;;
11537;SDS011;50159;49.426;11.182;2022-11-21T16:19:12;7.23;;;6.10;;
11537;SDS011;50159;49.426;11.182;2022-11-21T16:21:42;9.70;;;6.17;;
11537;SDS011;50159;49.426;11.182;2022-11-21T16:24:09;7.23;;;6.50;;
11537;SDS011;50159;49.426;11.182;2022-11-21T16:26:35;7.18;;;6.47;;
11537;SDS011;50159;49.426;11.182;2022-11-21T16:29:02;6.60;;;6.00;;
11537;SDS011;50159;49.426;11.182;2022-11-21T16:31:30;11.40;;;7.10;;
11537;SDS011;50159;49.426;11.182;2022-11-21T16:33:58;9.40;;;8.00;;
11537;SDS011;50159;49.426;11.182;2022-11-21T16:36:26;10.90;;;9.50;;
11537;SDS011;50159;49.426;11.182;2022-11-21T16:38:55;8.57;;;7.68;;
11537;SDS011;50159;49.426;11.182;2022-11-21T16:41:27;6.07;;;5.50;;
11537;SDS011;50159;49.426;11.182;2022-11-21T16:43:54;9.77;;;5.73;;
11537;SDS011;50159;49.426;11.182;2022-11-21T16:46:22;7.00;;;5.37;;
11537;SDS011;50159;49.426;11.182;2022-11-21T16:48:56;5.47;;;5.07;;
11537;SDS011;50159;49.426;11.182;2022-11-21T16:51:28;4.97;;;4.63;;
11537;SDS011;50159;49.426;11.182;2022-11-21T16:53:55;5.00;;;4.70;;
11537;SDS011;50159;49.426;11.182;2022-11-21T16:56:29;6.63;;;5.65;;
11537;SDS011;50159;49.426;11.182;2022-11-21T16:58:56;6.03;;;5.37;;
11537;SDS011;50159;49.426;11.182;2022-11-21T17:01:24;5.93;;;5.43;;